Mc Allen Miller International Airport
KMFE : rendu visible

Aérodrome :











RETROUVEZ-NOUS SUR...

 
LOGIN :

S'inscrire | Disclaimer

   EN    FR    IT 

 









Légende :    VFR   VFR Marginal   IFR   IFR Intensif   IFR Très Intensif
Visi : 
Plafond : 
>= 8 km
>= 3000ft
5 à 8 km
1000 à 3000 ft
1500m à 5 km
500 à 1000 ft
800 à 1500m
200 à 500 ft
< 800m
< 200 ft
Symboles :   Orages  Brouillard  Fortes neiges  Fortes précipitations  Vent > 20 kt






- Altitude de l'aérodrome : 107 ft
- Code IATA : MFE


KMFE - Mc Allen Miller International

DERNIER METAR :
  • 172253Z 15013G20KT 10SM CLR 28/13 A3004 RMK AO2 SLP169 T02780128

METARs EXPIRÉS :
  • 172153Z 14013KT 10SM CLR 28/14 A3004 RMK AO2 SLP169 T02830139
  • 172053Z 15011KT 10SM OVC065 28/16 A3005 RMK AO2 SLP175 T02780156 56031

TAF KMFE
Valide du 18 à 00h jusqu'au 19 à 00h UTC


172330Z 1800/1824 13009KT P6SM BKN150
FM181000 15006KT P6SM OVC015
PROB30 1812/1815 4SM -SHRA OVC008
FM181500 VRB03KT P6SM OVC010
PROB30 1815/1818 4SM -SHRA OVC005
FM181800 29008KT 6SM -SHRA OVC030
PROB30 1818/1824 4SM -TSRA OVC015CB



MET'MAP, la Météo Aéronautique d'un coup d'oeil ! - Copyright ORBIFLY Décembre 2007 - Disclaimer

ORBIFLY MET'MAP TEAM :

Programmation & Développement : Alexandra Zaïnal
Sur une idée originale de : Baudouin d'Aumeries
Assistance à la programmation : Marc-Olivier Méhu
Soutien technique & logistique : Manuel Goepfert

Contact : metmap@orbifly.com




SOURCES & CREDITS :

   NOAA       Earth
Advisory